Aviation Digital Data Service (ADDS)

Output produced by METARs form (0240 UTC 22 July 2017)
found at http://www.aviationweather.gov/adds/metars/
 
TAF FBFT 220000Z 2203/2212 16006KT CAVOK
       
FBMN 220200Z VRB01KT CAVOK 06/M01 Q1020
TAF FBMN 220000Z 2203/2212 07007KT CAVOK
       
FBSK 220200Z 15003KT CAVOK 06/M03 Q1021 NOSIG
TAF FBSK 212100Z 2200/2306 36008KT CAVOK
       
TAF FBFT 220000Z 2203/2212 16006KT CAVOK